createdAt,value
2022-08-16T00:02:32.130Z,20.65
2022-08-16T00:04:59.012Z,20.55
2022-08-16T00:07:29.092Z,20.61
2022-08-16T00:09:57.947Z,20.51
2022-08-16T00:12:28.135Z,20.56
2022-08-16T00:14:56.374Z,20.52
2022-08-16T00:17:25.673Z,20.48
2022-08-16T00:19:53.687Z,20.44
2022-08-16T00:22:25.570Z,20.44
2022-08-16T00:24:55.210Z,20.28
2022-08-16T00:27:23.263Z,20.18
2022-08-16T00:30:08.256Z,20.13
2022-08-16T00:32:40.601Z,20.05
2022-08-16T00:35:15.660Z,19.98
2022-08-16T00:37:58.947Z,20.03
2022-08-16T00:40:50.771Z,19.97
2022-08-16T00:43:42.480Z,20.03
2022-08-16T00:46:36.254Z,20.15
2022-08-16T00:49:18.949Z,20.12
2022-08-16T00:51:47.782Z,20.21
2022-08-16T00:54:24.674Z,20.27
2022-08-16T00:56:57.573Z,20.31
2022-08-16T00:59:30.051Z,20.40
2022-08-16T01:02:01.084Z,20.53
2022-08-16T01:05:10.855Z,20.43
2022-08-16T01:07:51.150Z,20.41
2022-08-16T01:10:32.201Z,20.31
2022-08-16T01:13:06.532Z,20.20
2022-08-16T01:15:36.233Z,20.21
2022-08-16T01:18:08.439Z,20.17
2022-08-16T01:21:33.759Z,20.18
2022-08-16T01:24:53.678Z,20.19
2022-08-16T01:27:30.995Z,20.40
2022-08-16T01:30:20.547Z,20.54
2022-08-16T01:33:01.407Z,20.56
2022-08-16T01:35:43.656Z,20.37
2022-08-16T01:38:28.201Z,20.39
2022-08-16T01:41:02.994Z,20.35
2022-08-16T01:43:31.774Z,20.30
2022-08-16T01:46:37.791Z,20.31
2022-08-16T01:48:53.563Z,20.22
2022-08-16T01:51:23.601Z,20.24
2022-08-16T01:53:55.277Z,20.18
2022-08-16T01:56:24.909Z,20.22
2022-08-16T01:58:55.004Z,20.25
2022-08-16T02:01:22.955Z,20.32
2022-08-16T02:03:52.649Z,20.34
2022-08-16T02:06:33.827Z,20.42
2022-08-16T02:09:05.359Z,20.41
2022-08-16T02:11:47.584Z,20.57
2022-08-16T02:14:18.125Z,20.53
2022-08-16T02:16:45.174Z,20.72
2022-08-16T02:19:16.109Z,20.66
2022-08-16T02:22:08.584Z,20.54
2022-08-16T02:24:42.158Z,20.59
2022-08-16T02:27:12.849Z,20.45
2022-08-16T02:29:41.542Z,20.39
2022-08-16T02:32:50.235Z,20.47
2022-08-16T02:34:58.396Z,20.32
2022-08-16T02:37:51.175Z,20.40
2022-08-16T02:40:13.328Z,20.44
2022-08-16T02:42:45.627Z,20.39
2022-08-16T02:45:17.309Z,20.43
2022-08-16T02:48:00.738Z,20.27
2022-08-16T02:51:04.111Z,20.41
2022-08-16T02:53:23.545Z,20.47
2022-08-16T02:55:51.500Z,20.42
2022-08-16T02:58:20.542Z,20.53
2022-08-16T03:00:57.173Z,20.49
2022-08-16T03:03:26.393Z,20.64
2022-08-16T03:05:54.347Z,20.53
2022-08-16T03:08:50.267Z,20.44
2022-08-16T03:11:16.931Z,20.36
2022-08-16T03:13:51.201Z,20.35
2022-08-16T03:16:38.250Z,20.36
2022-08-16T03:19:08.338Z,20.45
2022-08-16T03:21:37.763Z,20.44
2022-08-16T03:24:28.551Z,20.50
2022-08-16T03:26:59.239Z,20.38
2022-08-16T03:29:30.067Z,20.39
2022-08-16T03:31:59.191Z,20.47
2022-08-16T03:34:26.995Z,20.37
2022-08-16T03:36:54.749Z,20.36
2022-08-16T03:39:22.134Z,20.28
2022-08-16T03:41:51.318Z,20.24
2022-08-16T03:44:44.158Z,20.24
2022-08-16T03:47:19.265Z,20.22
2022-08-16T03:49:51.641Z,20.21
2022-08-16T03:52:23.466Z,20.25
2022-08-16T03:54:57.469Z,20.21
2022-08-16T03:57:24.945Z,20.20
2022-08-16T03:59:59.081Z,20.20
2022-08-16T04:02:31.735Z,20.20
2022-08-16T04:04:58.865Z,20.21
2022-08-16T04:07:25.889Z,20.28
2022-08-16T04:09:52.703Z,20.33
2022-08-16T04:12:53.479Z,20.42
2022-08-16T04:15:09.631Z,20.42
2022-08-16T04:17:37.225Z,20.36
2022-08-16T04:20:11.080Z,20.37
2022-08-16T04:22:56.197Z,20.34
2022-08-16T04:25:23.535Z,20.53
2022-08-16T04:27:54.121Z,20.59
2022-08-16T04:30:30.235Z,20.47
2022-08-16T04:32:58.785Z,20.46
2022-08-16T04:35:26.433Z,20.46
2022-08-16T04:38:00.890Z,20.37
2022-08-16T04:40:38.502Z,20.23
2022-08-16T04:43:05.805Z,20.22
2022-08-16T04:45:36.628Z,20.16
2022-08-16T04:48:04.405Z,20.25
2022-08-16T04:50:31.384Z,20.26
2022-08-16T04:52:59.241Z,20.22
2022-08-16T04:55:37.939Z,20.24
2022-08-16T04:58:43.693Z,20.23
2022-08-16T05:00:55.055Z,20.30
2022-08-16T05:03:21.951Z,20.34
2022-08-16T05:05:58.996Z,20.24
2022-08-16T05:08:30.915Z,20.22
2022-08-16T05:11:05.504Z,20.23
2022-08-16T05:13:41.134Z,20.22
2022-08-16T05:16:27.605Z,20.24
2022-08-16T05:18:58.610Z,20.33
2022-08-16T05:21:27.040Z,20.29
2022-08-16T05:23:58.685Z,20.32
2022-08-16T05:26:29.256Z,20.32
2022-08-16T05:28:57.612Z,20.32
2022-08-16T05:31:29.872Z,20.33
2022-08-16T05:33:59.537Z,20.33
2022-08-16T05:36:33.810Z,20.40
2022-08-16T05:39:02.872Z,20.36
2022-08-16T05:41:29.634Z,20.40
2022-08-16T05:44:00.256Z,20.42
2022-08-16T05:46:32.589Z,20.51
2022-08-16T05:49:09.048Z,20.49
2022-08-16T05:51:38.991Z,20.52
2022-08-16T05:54:08.185Z,20.52
2022-08-16T05:56:37.379Z,20.53
2022-08-16T05:59:06.430Z,20.46
2022-08-16T06:01:38.415Z,20.54
2022-08-16T06:04:13.088Z,20.50
2022-08-16T06:06:57.573Z,20.59
2022-08-16T06:09:43.837Z,20.69
2022-08-16T06:12:27.177Z,20.62
2022-08-16T06:14:59.164Z,20.67
2022-08-16T06:17:43.164Z,20.62
2022-08-16T06:20:14.863Z,20.67
2022-08-16T06:22:47.741Z,20.85
2022-08-16T06:25:36.107Z,20.85
2022-08-16T06:28:08.948Z,20.81
2022-08-16T06:30:43.279Z,20.95
2022-08-16T06:33:12.718Z,21.11
2022-08-16T06:35:40.575Z,21.09
2022-08-16T06:38:33.684Z,21.08
2022-08-16T06:40:55.608Z,21.13
2022-08-16T06:43:27.782Z,21.29
2022-08-16T06:45:55.618Z,21.45
2022-08-16T06:48:32.941Z,21.42
2022-08-16T06:51:02.642Z,21.71
2022-08-16T06:53:29.806Z,21.87
2022-08-16T06:56:00.758Z,22.04
2022-08-16T06:58:31.717Z,22.05
2022-08-16T07:01:03.065Z,22.23
2022-08-16T07:03:55.957Z,22.80
2022-08-16T07:06:26.714Z,22.74
2022-08-16T07:08:54.822Z,23.08
2022-08-16T07:11:45.765Z,22.93
2022-08-16T07:14:24.333Z,22.61
2022-08-16T07:16:55.134Z,22.34
2022-08-16T07:19:21.963Z,22.39
2022-08-16T07:22:39.139Z,22.59
2022-08-16T07:24:55.716Z,23.23
2022-08-16T07:27:22.555Z,23.27
2022-08-16T07:29:55.661Z,22.95
2022-08-16T07:32:29.654Z,23.04
2022-08-16T07:34:58.768Z,23.22
2022-08-16T07:37:25.665Z,22.96
2022-08-16T07:39:56.956Z,23.26
2022-08-16T07:42:34.673Z,23.67
2022-08-16T07:45:03.568Z,23.68
2022-08-16T07:47:36.796Z,23.68
2022-08-16T07:50:05.444Z,23.64
2022-08-16T07:52:34.401Z,23.51
2022-08-16T07:55:01.394Z,23.50
2022-08-16T07:57:28.202Z,23.52
2022-08-16T07:59:57.092Z,23.77
2022-08-16T08:02:27.511Z,23.47
2022-08-16T08:04:56.170Z,23.40
2022-08-16T08:07:27.511Z,23.47
2022-08-16T08:09:56.430Z,23.56
2022-08-16T08:12:31.382Z,23.82
2022-08-16T08:14:59.501Z,23.61
2022-08-16T08:17:42.564Z,23.70
2022-08-16T08:20:13.513Z,23.81
2022-08-16T08:23:00.804Z,24.01
2022-08-16T08:25:53.707Z,24.21
2022-08-16T08:28:17.872Z,24.43
2022-08-16T08:30:50.961Z,24.51
2022-08-16T08:33:27.740Z,24.24
2022-08-16T08:36:01.149Z,24.31
2022-08-16T08:38:45.071Z,24.37
2022-08-16T08:41:15.412Z,24.56
2022-08-16T08:43:47.154Z,24.56
2022-08-16T08:46:21.174Z,25.11
2022-08-16T08:49:01.940Z,25.06
2022-08-16T08:51:35.696Z,25.08
2022-08-16T08:54:09.447Z,25.68
2022-08-16T08:56:45.313Z,25.54
2022-08-16T08:59:20.370Z,25.92
2022-08-16T09:01:57.403Z,26.08
2022-08-16T09:04:28.956Z,26.66
2022-08-16T09:06:58.452Z,26.10
2022-08-16T09:09:33.170Z,26.46
2022-08-16T09:12:06.516Z,26.66
2022-08-16T09:14:38.768Z,26.77
2022-08-16T09:17:38.165Z,26.67
2022-08-16T09:20:05.940Z,27.05
2022-08-16T09:22:34.657Z,26.60
2022-08-16T09:25:09.739Z,26.43
2022-08-16T09:27:57.083Z,26.11
2022-08-16T09:30:34.789Z,25.90
2022-08-16T09:33:12.071Z,26.14
2022-08-16T09:35:39.464Z,26.62
2022-08-16T09:38:09.955Z,27.17
2022-08-16T09:40:43.965Z,27.08
2022-08-16T09:43:46.371Z,27.20
2022-08-16T09:46:00.518Z,27.21
2022-08-16T09:48:44.182Z,27.51
2022-08-16T09:51:13.360Z,27.44
2022-08-16T09:53:41.843Z,27.00
2022-08-16T09:56:31.556Z,27.48
2022-08-16T09:59:04.976Z,27.54
2022-08-16T10:01:36.493Z,27.57
2022-08-16T10:04:13.106Z,27.43
2022-08-16T10:06:54.085Z,27.52
2022-08-16T10:09:25.310Z,27.26
2022-08-16T10:12:11.652Z,27.39
2022-08-16T10:14:46.397Z,28.04
2022-08-16T10:17:13.584Z,28.00
2022-08-16T10:19:43.374Z,28.12
2022-08-16T10:22:12.798Z,27.58
2022-08-16T10:27:18.693Z,27.11
2022-08-16T10:28:05.892Z,26.73
2022-08-16T10:30:43.690Z,26.70
2022-08-16T10:33:13.694Z,26.71
2022-08-16T10:35:46.571Z,26.78
2022-08-16T10:38:27.232Z,27.47
2022-08-16T10:40:54.823Z,28.18
2022-08-16T10:43:21.712Z,28.09
2022-08-16T10:46:00.290Z,28.18
2022-08-16T10:48:29.990Z,28.18
2022-08-16T10:50:59.482Z,28.24
2022-08-16T10:53:32.762Z,28.45
2022-08-16T10:56:02.431Z,28.32
2022-08-16T10:58:34.281Z,28.49
2022-08-16T11:03:57.412Z,28.31
2022-08-16T11:06:26.998Z,28.27
2022-08-16T11:14:31.856Z,28.40
2022-08-16T11:17:02.746Z,28.54
2022-08-16T11:20:00.544Z,28.46
2022-08-16T11:22:41.863Z,28.50
2022-08-16T11:25:12.380Z,28.43
2022-08-16T11:27:39.773Z,28.45
2022-08-16T11:30:09.373Z,28.47
2022-08-16T11:32:39.728Z,28.68
2022-08-16T11:35:15.265Z,28.95
2022-08-16T11:40:47.063Z,29.20
2022-08-16T11:43:23.769Z,28.84
2022-08-16T11:45:55.194Z,29.05
2022-08-16T11:48:25.988Z,29.50
2022-08-16T11:50:54.122Z,29.16
2022-08-16T11:53:22.139Z,28.87
2022-08-16T11:55:54.448Z,29.01
2022-08-16T11:58:23.237Z,28.69
2022-08-16T12:00:53.325Z,28.39
2022-08-16T12:03:34.973Z,28.69
2022-08-16T12:06:25.146Z,28.67
2022-08-16T12:09:01.061Z,28.67
2022-08-16T12:11:31.503Z,28.63
2022-08-16T12:14:04.370Z,28.59
2022-08-16T12:16:34.236Z,28.76
2022-08-16T12:19:06.963Z,28.59
2022-08-16T12:21:58.184Z,28.93
2022-08-16T12:24:28.197Z,28.93
2022-08-16T12:26:56.034Z,29.12
2022-08-16T12:29:25.830Z,28.62
2022-08-16T12:32:01.336Z,28.41
2022-08-16T12:34:50.865Z,28.24
2022-08-16T12:37:24.138Z,28.38
2022-08-16T12:39:56.462Z,28.64
2022-08-16T12:42:34.684Z,28.45
2022-08-16T12:45:09.700Z,28.74
2022-08-16T12:48:09.909Z,28.39
2022-08-16T12:50:42.671Z,28.38
2022-08-16T12:53:18.019Z,28.85
2022-08-16T12:55:45.546Z,29.28
2022-08-16T12:58:49.770Z,29.35
2022-08-16T13:01:01.901Z,28.47
2022-08-16T13:03:29.130Z,28.21
2022-08-16T13:05:59.616Z,28.26
2022-08-16T13:08:30.723Z,28.32
2022-08-16T13:11:01.889Z,28.54
2022-08-16T13:13:29.591Z,28.77
2022-08-16T13:16:03.621Z,29.16
2022-08-16T13:18:34.512Z,28.74
2022-08-16T13:21:08.066Z,28.46
2022-08-16T13:23:43.748Z,28.83
2022-08-16T13:26:11.046Z,29.10
2022-08-16T13:28:38.357Z,29.11
2022-08-16T13:31:05.857Z,29.17
2022-08-16T13:33:37.161Z,29.36
2022-08-16T13:36:21.224Z,29.62
2022-08-16T13:38:57.665Z,29.61
2022-08-16T13:41:26.949Z,28.90
2022-08-16T13:43:59.733Z,28.93
2022-08-16T13:46:28.868Z,28.65
2022-08-16T13:48:58.032Z,28.93
2022-08-16T13:51:29.392Z,29.35
2022-08-16T13:54:04.092Z,29.59
2022-08-16T13:56:37.446Z,29.94
2022-08-16T13:59:13.897Z,30.29
2022-08-16T14:01:55.155Z,30.08
2022-08-16T14:04:26.499Z,29.68
2022-08-16T14:06:55.456Z,29.51
2022-08-16T14:09:24.864Z,29.43
2022-08-16T14:11:54.967Z,29.34
2022-08-16T14:14:28.517Z,29.42
2022-08-16T14:16:58.661Z,29.74
2022-08-16T14:19:27.885Z,29.62
2022-08-16T14:22:14.479Z,29.50
2022-08-16T14:24:47.405Z,29.06
2022-08-16T14:27:21.340Z,29.05
2022-08-16T14:29:50.911Z,28.82
2022-08-16T14:32:33.885Z,28.50
2022-08-16T14:35:14.097Z,28.31
2022-08-16T14:37:43.391Z,28.37
2022-08-16T14:40:13.454Z,28.43
2022-08-16T14:42:44.161Z,28.57
2022-08-16T14:45:15.598Z,28.71
2022-08-16T14:47:44.553Z,28.88
2022-08-16T14:50:15.249Z,28.80
2022-08-16T14:52:56.228Z,28.76
2022-08-16T14:55:24.884Z,28.95
2022-08-16T14:57:54.518Z,29.23
2022-08-16T15:00:32.898Z,29.09
2022-08-16T15:03:02.539Z,29.27
2022-08-16T15:07:59.054Z,29.55
2022-08-16T15:10:29.449Z,29.39
2022-08-16T15:13:01.068Z,29.42
2022-08-16T15:15:30.667Z,29.30
2022-08-16T15:18:01.473Z,29.47
2022-08-16T15:20:34.029Z,29.65
2022-08-16T15:23:05.293Z,29.35
2022-08-16T15:25:41.102Z,29.40
2022-08-16T15:28:30.982Z,29.41
2022-08-16T15:31:03.413Z,29.42
2022-08-16T15:33:35.150Z,29.25
2022-08-16T15:36:03.809Z,29.13
2022-08-16T15:39:02.937Z,29.14
2022-08-16T15:41:31.513Z,28.99
2022-08-16T15:44:05.216Z,29.08
2022-08-16T15:46:56.371Z,28.99
2022-08-16T15:49:34.520Z,28.87
2022-08-16T15:52:20.664Z,28.80
2022-08-16T15:54:53.191Z,28.92
2022-08-16T15:57:25.171Z,28.88
2022-08-16T15:59:55.800Z,28.72
2022-08-16T16:02:30.763Z,28.63
2022-08-16T16:05:01.860Z,28.62
2022-08-16T16:07:31.319Z,28.47
2022-08-16T16:10:00.765Z,28.42
2022-08-16T16:12:54.164Z,28.50
2022-08-16T16:15:19.663Z,28.44
2022-08-16T16:17:50.996Z,28.52
2022-08-16T16:20:27.307Z,28.50
2022-08-16T16:23:04.446Z,28.52
2022-08-16T16:25:44.680Z,28.59
2022-08-16T16:29:05.011Z,28.51
2022-08-16T16:31:02.966Z,28.39
2022-08-16T16:33:30.997Z,28.37
2022-08-16T16:36:04.012Z,28.32
2022-08-16T16:38:35.611Z,28.29
2022-08-16T16:41:09.921Z,28.14
2022-08-16T16:43:40.920Z,28.18
2022-08-16T16:46:40.719Z,28.01
2022-08-16T16:48:58.239Z,27.94
2022-08-16T16:51:28.012Z,27.89
2022-08-16T16:53:57.544Z,27.82
2022-08-16T16:56:32.217Z,27.75
2022-08-16T16:59:06.969Z,27.65
2022-08-16T17:01:59.608Z,27.63
2022-08-16T17:04:31.729Z,27.53
2022-08-16T17:07:01.598Z,27.48
2022-08-16T17:09:29.548Z,27.42
2022-08-16T17:11:56.977Z,27.27
2022-08-16T17:17:13.131Z,27.12
2022-08-16T17:19:41.651Z,27.06
2022-08-16T17:22:15.516Z,27.04
2022-08-16T17:24:50.581Z,26.94
2022-08-16T17:27:34.173Z,26.91
2022-08-16T17:30:15.747Z,26.90
2022-08-16T17:32:54.661Z,26.84
2022-08-16T17:35:33.971Z,26.79
2022-08-16T17:38:39.046Z,26.77
2022-08-16T17:39:28.064Z,27.22
2022-08-16T17:41:09.999Z,26.73
2022-08-16T17:43:44.371Z,26.66
2022-08-16T17:46:41.485Z,26.51
2022-08-16T17:49:02.970Z,26.39
2022-08-16T17:51:30.988Z,26.28
2022-08-16T17:53:58.783Z,26.27
2022-08-16T17:56:26.192Z,26.19
2022-08-16T17:58:54.457Z,26.11
2022-08-16T18:01:25.731Z,26.00
2022-08-16T18:04:06.638Z,25.88
2022-08-16T18:06:36.868Z,25.74
2022-08-16T18:09:04.230Z,25.62
2022-08-16T18:11:35.735Z,25.49
2022-08-16T18:14:04.120Z,25.44
2022-08-16T18:16:32.419Z,25.39
2022-08-16T18:19:00.507Z,25.19
2022-08-16T18:21:46.715Z,25.25
2022-08-16T18:24:15.095Z,25.12
2022-08-16T18:26:42.214Z,25.09
2022-08-16T18:29:09.272Z,24.87
2022-08-16T18:31:36.481Z,24.78
2022-08-16T18:34:03.582Z,24.70
2022-08-16T18:36:31.857Z,24.61
2022-08-16T18:38:59.308Z,24.47
2022-08-16T18:41:26.824Z,24.23
2022-08-16T18:43:58.769Z,24.32
2022-08-16T18:46:43.408Z,24.27
2022-08-16T18:49:11.864Z,24.16
2022-08-16T18:51:44.892Z,24.13
2022-08-16T18:54:16.709Z,24.03
2022-08-16T18:56:55.932Z,23.86
2022-08-16T18:59:27.474Z,23.86
2022-08-16T19:01:59.766Z,23.64
2022-08-16T19:04:56.197Z,23.49
2022-08-16T19:07:16.486Z,23.36
2022-08-16T19:09:45.909Z,23.14
2022-08-16T19:12:15.682Z,23.06
2022-08-16T19:14:45.697Z,22.95
2022-08-16T19:17:12.556Z,22.74
2022-08-16T19:19:39.816Z,22.58
2022-08-16T19:22:06.594Z,22.58
2022-08-16T19:24:33.398Z,22.69
2022-08-16T19:27:01.764Z,22.73
2022-08-16T19:29:29.471Z,22.75
2022-08-16T19:31:56.686Z,22.79
2022-08-16T19:34:23.613Z,22.85
2022-08-16T19:36:50.517Z,22.74
2022-08-16T19:39:17.572Z,22.71
2022-08-16T19:41:52.098Z,22.65
2022-08-16T19:44:21.590Z,22.64
2022-08-16T19:46:49.443Z,22.66
2022-08-16T19:49:17.053Z,22.58
2022-08-16T19:51:46.251Z,22.48
2022-08-16T19:54:12.988Z,22.46
2022-08-16T19:56:39.731Z,22.45
2022-08-16T19:59:39.663Z,22.45
2022-08-16T20:01:53.642Z,22.38
2022-08-16T20:04:22.703Z,22.32
2022-08-16T20:06:52.436Z,22.28
2022-08-16T20:09:20.812Z,22.22
2022-08-16T20:11:49.614Z,22.14
2022-08-16T20:14:24.899Z,22.03
2022-08-16T20:16:54.518Z,22.00
2022-08-16T20:19:21.226Z,21.92
2022-08-16T20:21:48.090Z,21.90
2022-08-16T20:24:33.663Z,21.93
2022-08-16T20:27:02.954Z,21.80
2022-08-16T20:29:29.746Z,21.81
2022-08-16T20:31:57.595Z,21.78
2022-08-16T20:34:24.366Z,21.74
2022-08-16T20:36:51.089Z,21.70
2022-08-16T20:39:17.826Z,21.72
2022-08-16T20:41:44.655Z,21.57
2022-08-16T20:44:12.774Z,21.49
2022-08-16T20:46:39.544Z,21.45
2022-08-16T20:49:09.348Z,21.46
2022-08-16T20:51:46.979Z,21.41
2022-08-16T20:54:20.270Z,21.37
2022-08-16T20:56:49.007Z,21.30
2022-08-16T20:59:17.277Z,21.00
2022-08-16T21:01:49.696Z,20.80
2022-08-16T21:04:22.796Z,20.75
2022-08-16T21:06:54.226Z,20.58
2022-08-16T21:09:28.160Z,20.54
2022-08-16T21:11:57.978Z,20.48
2022-08-16T21:14:26.572Z,20.41
2022-08-16T21:16:56.247Z,20.34
2022-08-16T21:19:24.521Z,20.49
2022-08-16T21:21:53.736Z,20.54
2022-08-16T21:24:21.864Z,20.43
2022-08-16T21:26:55.589Z,20.38
2022-08-16T21:29:28.432Z,20.39
2022-08-16T21:32:13.902Z,20.48
2022-08-16T21:34:42.282Z,20.45
2022-08-16T21:37:10.844Z,20.48
2022-08-16T21:39:38.853Z,20.43
2022-08-16T21:42:15.210Z,20.39
2022-08-16T21:44:44.511Z,20.40
2022-08-16T21:47:12.515Z,20.40
2022-08-16T21:49:40.696Z,20.49
2022-08-16T21:52:25.932Z,20.56
2022-08-16T21:54:56.267Z,20.62
2022-08-16T21:57:23.942Z,20.65
2022-08-16T21:59:52.381Z,20.62
2022-08-16T22:02:21.107Z,20.61
2022-08-16T22:04:49.818Z,20.63
2022-08-16T22:07:18.336Z,20.71
2022-08-16T22:09:47.709Z,20.70
2022-08-16T22:12:24.375Z,20.56
2022-08-16T22:14:51.160Z,20.73
2022-08-16T22:17:18.426Z,20.75
2022-08-16T22:19:47.969Z,20.80
2022-08-16T22:22:15.417Z,20.80
2022-08-16T22:24:42.170Z,20.81
2022-08-16T22:27:09.016Z,20.67
2022-08-16T22:29:39.501Z,20.67
2022-08-16T22:32:09.370Z,20.63
2022-08-16T22:34:37.581Z,20.53
2022-08-16T22:37:05.466Z,20.51
2022-08-16T22:39:33.899Z,20.43
2022-08-16T22:42:08.893Z,20.39
2022-08-16T22:44:37.911Z,20.42
2022-08-16T22:47:05.161Z,20.49
2022-08-16T22:49:33.554Z,20.41
2022-08-16T22:52:09.578Z,20.53
2022-08-16T22:54:48.142Z,20.53
2022-08-16T22:57:16.785Z,20.54
2022-08-16T22:59:47.138Z,20.52
2022-08-16T23:02:19.627Z,20.54
2022-08-16T23:04:46.396Z,20.46
2022-08-16T23:07:14.218Z,20.38
2022-08-16T23:09:41.009Z,20.11
2022-08-16T23:12:08.342Z,20.15
2022-08-16T23:14:36.287Z,20.01
2022-08-16T23:17:03.849Z,19.96
2022-08-16T23:19:30.934Z,19.86
2022-08-16T23:21:58.770Z,19.89
2022-08-16T23:24:27.613Z,19.94
2022-08-16T23:26:54.355Z,19.89
2022-08-16T23:29:25.184Z,19.75
2022-08-16T23:32:09.050Z,19.46
2022-08-16T23:34:35.867Z,19.39
2022-08-16T23:37:02.653Z,19.37
2022-08-16T23:39:30.928Z,19.33
2022-08-16T23:41:58.865Z,19.42
2022-08-16T23:44:42.280Z,19.36
2022-08-16T23:47:15.327Z,19.33
2022-08-16T23:49:57.136Z,19.18
2022-08-16T23:52:53.299Z,19.02
2022-08-16T23:55:17.376Z,19.10
2022-08-16T23:57:44.877Z,19.17
